Hastings Natural History Reservation, California Weather observations

Data are for 10 minute period ending at time listed.
 Day   Time   Solar   Ave.   Ave.  Ave.  Vector  Max.   Baro.   Total    
  of    of     Rad.   Air    Rel.  Wind   Wind   Wind  Press.  Precip.   
Year   Day            Temp.  Hum.  Speed  Dir.   Gust                    
2015   (PST)  Kw/m2    F      %     mph   deg.    mph    mb.     in.     
-------------------------------------------------------------------------
  86   16:40   0.53   72.6    46    4.7   248     9.3   956.1    0.00 
  86   16:50   0.53   71.0    47    5.3   247     9.2   956.1    0.00 
  86   17:00   0.48   71.2    45    3.5   260     8.0   956.1    0.00 
  86   17:10   0.42   71.9    43    2.5   256     6.3   956.0    0.00 
  86   17:20   0.40   73.0    41    2.3   257     4.4   956.1    0.00 
  86   17:30   0.38   72.7    42    3.0   251     6.9   956.0    0.00 
  86   17:40   0.37   71.4    43    4.0   240     7.5   956.0    0.00 
  86   17:50   0.33   71.6    41    2.4   247     5.8   956.0    0.00 
  86   18:00   0.30   71.6    39    2.6   254     4.6   955.9    0.00 
  86   18:10   0.26   71.7    38    2.0   252     5.3   955.8    0.00 
  86   18:20   0.22   70.0    49    2.7   253     5.4   955.9    0.00 
  86   18:30   0.18   67.3    58    2.3   260     6.0   956.0    0.00 
  86   18:40   0.15   64.0    64    3.1   250     6.1   956.1    0.00 
  86   18:50   0.11   61.5    68    2.1   230     5.3   956.2    0.00 
  86   19:00   0.05   60.2    70    1.9   246     3.5   956.3    0.00 
  86   19:10   0.01   59.4    70    1.4   239     3.1   956.3    0.00 
  86   19:20   0.00   59.0    71    0.1   178     1.2   956.4    0.00 
  86   19:30   0.00   58.4    73    0.5    55     1.3   956.5    0.00 
  86   19:40   0.00   57.3    75    0.6    46     1.5   956.5    0.00 
  86   19:50   0.00   56.2    77    0.2    40     1.0   956.6    0.00 
  86   20:00   0.00   55.3    78    0.0    61     0.4   956.7    0.00 
  86   20:10   0.00   54.3    78    0.0     0     0.0   956.9    0.00 
  86   20:20   0.00   53.6    76    0.2    75     1.4   956.9    0.00 
  86   20:30   0.00   52.9    74    0.0   208     0.8   957.0    0.00 
  86   20:40   0.00   52.2    74    0.3    49     1.5   957.2    0.00 
  86   20:50   0.00   51.7    70    1.1    54     2.0   957.4    0.00 
  86   21:00   0.00   51.0    68    1.4    46     2.4   957.5    0.00 
  86   21:10   0.00   50.4    67    1.3    44     2.0   957.5    0.00 
  86   21:20   0.00   49.7    68    0.8    53     2.0   957.5    0.00 
  86   21:30   0.00   49.3    68    1.3    56     2.0   957.6    0.00 
  86   21:40   0.00   48.7    68    1.0    48     2.0   957.7    0.00 
  86   21:50   0.00   48.4    68    0.4    47     2.0   957.7    0.00 
  86   22:00   0.00   47.9    68    0.5    56     1.6   957.7    0.00 
  86   22:10   0.00   47.5    70    0.2   286     1.7   957.7    0.00 
  86   22:20   0.00   46.9    72    0.1   233     1.1   957.7    0.00 
  86   22:30   0.00   46.6    74    0.5    48     2.0   957.8    0.00 
  86   22:40   0.00   46.5    76    0.3    54     1.2   957.9    0.00 
  86   22:50   0.00   46.3    75    0.3    56     1.0   957.9    0.00 
  86   23:00   0.00   46.1    76    1.0    49     1.4   957.8    0.00 
  86   23:10   0.00   45.8    76    1.1    48     1.7   957.9    0.00 
  86   23:20   0.00   45.7    77    0.7    53     1.3   957.9    0.00 
  86   23:30   0.00   45.4    78    0.3    53     0.9   957.9    0.00 
  86   23:40   0.00   45.3    78    0.1   352     1.0   957.8    0.00 
  86   23:50   0.00   44.8    80    0.6    49     1.4   957.8    0.00 
  87    0:00   0.00   44.7    79    0.8    60     2.1   957.7    0.00 
  87    0:10   0.00   44.6    80    0.9    48     2.2   957.5    0.00 
  87    0:20   0.00   44.4    82    0.4    45     1.5   957.5    0.00 
  87    0:30   0.00   44.3    83    0.4    69     1.1   957.4    0.00 
  87    0:40   0.00   44.3    82    0.5    40     1.5   957.4    0.00 
  87    0:50   0.00   44.0    83    0.4    49     1.3   957.3    0.00 
  87    1:00   0.00   43.9    83    0.3    70     1.2   957.5    0.00 
  87    1:10   0.00   43.9    83    0.9    50     1.5   957.7    0.00 
  87    1:20   0.00   43.8    83    0.5    53     1.3   957.8    0.00 
  87    1:30   0.00   43.4    84    1.1    53     1.9   957.9    0.00 
  87    1:40   0.00   43.4    83    0.6    54     1.6   957.9    0.00 
  87    1:50   0.00   43.3    83    1.1    48     1.6   957.9    0.00 
  87    2:00   0.00   43.5    82    1.3    55     2.0   957.8    0.00 
  87    2:10   0.00   43.8    81    0.5    68     1.9   957.7    0.00 
  87    2:20   0.00   43.5    82    0.2    52     1.2   957.6    0.00 
  87    2:30   0.00   43.2    83    0.1   259     1.1   957.6    0.00 
  87    2:40   0.00   42.8    84    0.7    66     1.8   957.4    0.00 
  87    2:50   0.00   42.8    84    0.2    50     1.2   957.3    0.00 
  87    3:00   0.00   43.0    85    0.1   188     1.2   957.2    0.00 
  87    3:10   0.00   42.9    85    0.7   229     2.9   957.0    0.00 
  87    3:20   0.00   42.3    86    0.4   249     1.6   956.9    0.00 
  87    3:30   0.00   42.0    87    0.1    22     0.9   956.7    0.00 
  87    3:40   0.00   42.0    88    0.5   152     2.3   956.6    0.00 
  87    3:50   0.00   41.7    88    1.1   244     2.6   956.5    0.00 
  87    4:00   0.00   41.5    89    0.7   197     2.9   956.4    0.00 
  87    4:10   0.00   41.5    89    1.3   240     2.3   956.3    0.00 
  87    4:20   0.00   41.6    90    0.1    42     1.2   956.3    0.00 
  87    4:30   0.00   42.0    90    0.5    50     1.8   956.3    0.00 
  87    4:40   0.00   42.2    90    0.0    46     0.6   956.3    0.00 
  87    4:50   0.00   42.1    89    1.1    60     2.7   956.3    0.00 
  87    5:00   0.00   42.1    87    0.5    49     1.8   956.2    0.00 
  87    5:10   0.00   41.7    87    0.2   245     1.1   956.3    0.00 
  87    5:20   0.00   41.6    88    0.2    43     1.8   956.3    0.00 
  87    5:30   0.00   41.6    86    0.3    49     1.2   956.3    0.00 
  87    5:40   0.00   41.5    86    0.6    62     1.8   956.5    0.00 
  87    5:50   0.00   41.5    85    1.5    54     2.8   956.5    0.00 
  87    6:00   0.00   41.5    85    0.5    54     1.6   956.4    0.00 
  87    6:10   0.00   41.3    85    0.2    96     1.6   956.3    0.00 
  87    6:20   0.00   41.3    85    1.0    82     3.0   956.2    0.00 
  87    6:30   0.00   40.4    87    0.5    46     1.5   956.1    0.00 
  87    6:40   0.00   40.4    87    1.1    76     2.9   956.0    0.00 
  87    6:50   0.00   40.5    88    1.2    61     3.1   955.9    0.00 
  87    7:00   0.00   40.4    88    0.5    83     3.0   955.9    0.00 
  87    7:10   0.00   40.3    88    0.2    99     2.6   955.9    0.00 
  87    7:20   0.00   40.5    88    0.4    84     2.0   956.0    0.00 
  87    7:30   0.00   40.7    86    0.9   244     1.8   956.1    0.00 
  87    7:40   0.01   41.3    85    0.9   238     2.3   956.3    0.00 
  87    7:50   0.01   41.2    84    0.2   254     1.2   956.4    0.00 
  87    8:00   0.01   42.1    82    0.1    39     1.1   956.4    0.00 
  87    8:10   0.01   43.0    80    0.3    51     1.2   956.4    0.00 
  87    8:20   0.01   44.0    78    0.4    68     1.5   956.3    0.00 
  87    8:30   0.01   46.8    70    1.8    69     4.3   956.1    0.00 
  87    8:40   0.03   49.7    63    1.6    66     3.7   956.1    0.00 
  87    8:50   0.13   51.0    60    1.6    74     4.7   956.2    0.00 
  87    9:00   0.28   53.3    58    0.8    96     3.1   956.3    0.00 
  87    9:10   0.32   56.7    52    1.1    63     3.3   956.4    0.00 
  87    9:20   0.34   59.9    48    1.0    64     2.0   956.4    0.00 
  87    9:30   0.37   62.6    45    0.6    50     1.6   956.4    0.00 
  87    9:40   0.41   65.4    43    0.5   247     1.7   956.5    0.00 
  87    9:50   0.45   66.9    39    1.5   246     6.1   956.4    0.00 
  87   10:00   0.49   66.3    42    2.9   245     5.9   956.5    0.00 
  87   10:10   0.50   66.2    40    1.5   256     4.3   956.6    0.00 
  87   10:20   0.52   66.5    39    1.3   280     4.4   956.7    0.00 
  87   10:30   0.56   66.3    40    2.1   250     5.6   956.7    0.00 
  87   10:40   0.60   65.0    41    3.6   244     8.3   956.6    0.00 
  87   10:50   0.62   65.2    40    3.3   240     6.7   956.8    0.00 
  87   11:00   0.66   64.8    37    4.5   248     8.0   956.8    0.00 
  87   11:10   0.68   65.1    40    3.5   239     7.1   956.8    0.00 
  87   11:20   0.69   67.0    41    3.4   245     7.5   956.8    0.00 
  87   11:30   0.67   67.2    40    2.9   253     6.4   956.8    0.00 
  87   11:40   0.71   67.7    38    4.2   248     7.4   956.8    0.00 
  87   11:50   0.74   68.3    38    3.7   251     8.4   956.9    0.00 
  87   12:00   0.79   69.1    37    3.6   256     8.6   956.9    0.00 
  87   12:10   0.67   68.9    36    4.3   258     9.6   956.9    0.00 
  87   12:20   0.74   70.5    38    2.3   316     7.4   956.9    0.00 
  87   12:30   0.78   70.3    38    3.0   254     8.1   956.7    0.00 
  87   12:40   0.80   72.2    35    1.9   326     4.7   956.6    0.00 
  87   12:50   0.78   71.5    34    4.0   244     7.7   956.5    0.00 
  87   13:00   0.81   72.1    33    2.9   248     8.0   956.4    0.00 
  87   13:10   0.80   72.4    33    3.6   249     7.2   956.3    0.00 
  87   13:20   0.73   72.6    33    3.3   246     7.7   956.1    0.00 
  87   13:30   0.83   73.3    33    3.5   240     6.9   956.0    0.00 
  87   13:40   0.84   74.7    33    2.5   250     5.3   955.8    0.00 
  87   13:50   0.81   74.5    33    2.6   243     5.7   955.7    0.00 
  87   14:00   0.76   75.6    32    3.5   249     8.5   955.6    0.00 
  87   14:10   0.79   77.1    32    2.2   276     5.9   955.5    0.00 
  87   14:20   0.79   77.6    30    3.1   305     7.6   955.5    0.00 
  87   14:30   0.80   77.2    30    2.1   264     6.0   955.4    0.00 
  87   14:40   0.74   77.6    26    3.4   254     8.3   955.3    0.00 
  87   14:50   0.70   77.6    24    4.5   240    11.6   955.2    0.00 
  87   15:00   0.69   77.5    26    3.9   249     7.5   955.0    0.00 
  87   15:10   0.68   78.0    27    3.5   251     7.1   954.9    0.00 
  87   15:20   0.70   79.0    27    4.0   247    11.2   954.9    0.00 
  87   15:30   0.67   77.6    30    5.0   254    13.2   954.9    0.00 
  87   15:40   0.63   77.5    35    3.1   278     8.8   954.9    0.00 
  87   15:50   0.61   77.1    40    4.3   255    10.5   954.9    0.00 
  87   16:00   0.59   75.3    41    5.7   251    11.5   954.9    0.00 
  87   16:10   0.57   74.3    43    5.7   249    12.4   954.9    0.00 
  87   16:20   0.56   74.2    42    5.5   244    10.9   954.8    0.00 
  87   16:30   0.47   75.1    41    3.1   255     8.6   954.8    0.00 

Return to Hastings Natural History Reservation graphs page.


Western Regional Climate Center,wrcc@dri.edu